WetterOnline ( https://www.wetteronline.de )

Wetter aktuell Eisenhüttenstadt

Aktuelles Wetter: Lindenberg b. Beeskow (104m)

6-stündlich | Neueste Meldungen
Ortszeit Temperatur Wetter
Sa, 04.02. 13:00 2.7° C bewölkt
Sa, 04.02. 7:00 -0.7° C bewölkt
Sa, 04.02. 1:00 3.1° C bewölkt
Fr, 03.02. 19:00 6.2° C bewölkt
Fr, 03.02. 13:00 6.1° C Regen
Fr, 03.02. 7:00 3.7° C bewölkt
Fr, 03.02. 1:00 -0.3° C bedeckt
Do, 02.02. 19:00 -0.7° C bedeckt
Ortszeit Temperatur Wetter
Sa, 04.02. 17:00 1.2° C bewölkt
Sa, 04.02. 16:50 1.2° C bewölkt
Sa, 04.02. 16:40 1.5° C bewölkt
Sa, 04.02. 16:30 1.7° C wolkig
Sa, 04.02. 16:20 1.7° C wolkig
Sa, 04.02. 16:10 2.2° C bedeckt
Sa, 04.02. 16:00 2.5° C wolkig
Sa, 04.02. 15:30 2.3° C bewölkt
Sa, 04.02. 15:00 2.4° C bewölkt
Sa, 04.02. 14:30 2.9° C bewölkt
Sa, 04.02. 14:00 3.0° C wolkig
Ortszeit Relative Feuchte Sichtweite
Sa, 04.02. 13:00 69% >70 km
Sa, 04.02. 7:00 91% 65 km
Sa, 04.02. 1:00 79% 55 km
Fr, 03.02. 19:00 77% 27 km
Fr, 03.02. 13:00 83% 40 km
Fr, 03.02. 7:00 97% 14 km
Fr, 03.02. 1:00 92% 45 km
Do, 02.02. 19:00 90% 40 km
Ortszeit Relative Feuchte Sichtweite
Sa, 04.02. 17:00 64% >70 km
Sa, 04.02. 16:50 64% -
Sa, 04.02. 16:40 63% -
Sa, 04.02. 16:30 61% >70 km
Sa, 04.02. 16:20 61% -
Sa, 04.02. 16:10 61% -
Sa, 04.02. 16:00 61% >70 km
Sa, 04.02. 15:30 64% >70 km
Sa, 04.02. 15:00 63% >70 km
Sa, 04.02. 14:30 60% >70 km
Sa, 04.02. 14:00 58% >70 km
Ortszeit Niederschlagsmenge Niederschlagsart
Sa, 04.02. 13:00 0.1 l/m2 in 6 Std. Schnee
Sa, 04.02. 7:00 0.2 l/m2 in 12 Std. Schnee, Regen
Sa, 04.02. 1:00 0.2 l/m2 in 6 Std. Regen
Fr, 03.02. 19:00 8 l/m2 in 12 Std. Regen
Fr, 03.02. 13:00 5 l/m2 in 6 Std. Regen
Fr, 03.02. 7:00 2 l/m2 in 12 Std. Schnee, Regen
Fr, 03.02. 1:00 0.0 l/m2 in 6 Std. -
Do, 02.02. 19:00 0.3 l/m2 in 12 Std. Regen
Ortszeit Niederschlagsmenge Niederschlagsart
Sa, 04.02. 17:00 0.0 l/m2 in 1 Std. -
Sa, 04.02. 16:50 keine Meldung -
Sa, 04.02. 16:40 keine Meldung -
Sa, 04.02. 16:30 0.0 l/m2 in 30 Min -
Sa, 04.02. 16:20 keine Meldung -
Sa, 04.02. 16:10 keine Meldung -
Sa, 04.02. 16:00 0.0 l/m2 in 1 Std. -
Sa, 04.02. 15:30 0.0 l/m2 in 30 Min -
Sa, 04.02. 15:00 0.0 l/m2 in 1 Std. -
Sa, 04.02. 14:30 0.0 l/m2 in 30 Min -
Sa, 04.02. 14:00 0.0 l/m2 in 1 Std. -
Ortszeit Stärke Spitze Richtung
km/h Bft. km/h Grad Sektor
Sa, 04.02. 13:00 13 3 33 360° N
Sa, 04.02. 7:00 7 2 61 350° N
Sa, 04.02. 1:00 25 4 68 350° N
Fr, 03.02. 19:00 32 5 86 300° NW
Fr, 03.02. 13:00 28 4 80 300° NW
Fr, 03.02. 7:00 19 3 30 250° W
Fr, 03.02. 1:00 11 2 18 200° S
Do, 02.02. 19:00 6 1 44 340° N
Ortszeit Stärke Spitze Richtung
km/h Bft. km/h Grad Sektor
Sa, 04.02. 17:00 14 3 32 360° N
Sa, 04.02. 16:50 14 3 - 360° N
Sa, 04.02. 16:40 11 2 - 350° N
Sa, 04.02. 16:30 13 3 33 350° N
Sa, 04.02. 16:20 13 3 - 350° N
Sa, 04.02. 16:10 14 3 - 360° N
Sa, 04.02. 16:00 11 2 25 330° NW
Sa, 04.02. 15:30 11 2 24 340° N
Sa, 04.02. 15:00 13 3 30 360° N
Sa, 04.02. 14:30 13 3 28 340° N
Sa, 04.02. 14:00 18 3 40 350° N
Ortszeit Untergrenze Bedeckung Gattung
total tief tief mittel hoch
Sa, 04.02. 13:00 720 m 7/8 7/8 - - -
Sa, 04.02. 7:00 750 m 7/8 7/8 - - -
Sa, 04.02. 1:00 570 m 7/8 7/8 - - -
Fr, 03.02. 19:00 690 m 7/8 7/8 - - -
Fr, 03.02. 13:00 870 m 7/8 7/8 - - -
Fr, 03.02. 7:00 120 m 7/8 7/8 - - -
Fr, 03.02. 1:00 930 m 8/8 8/8 - - -
Do, 02.02. 19:00 6300 m 8/8 8/8 - - -
Ortszeit Bedeckungsgrad in Achtel und Wolkenuntergrenze
Sa, 04.02. 17:00 7(1440m)
Sa, 04.02. 16:50 7(1440m)
Sa, 04.02. 16:40 7
Sa, 04.02. 16:30 2(1020m) 6(1410m)
Sa, 04.02. 16:20 2(1020m) 6(1410m)
Sa, 04.02. 16:10 8
Sa, 04.02. 16:00 3(1230m) 6(1440m)
Sa, 04.02. 15:30 2(1080m) 7(1350m)
Sa, 04.02. 15:00 3(1020m) 7(1440m)
Sa, 04.02. 14:30 6(1320m) 7(1500m)
Sa, 04.02. 14:00 1(1020m) 6(1320m)
Ortszeit Luftdruck NN (hPa) Tendenz (hPa in 3 Std.)
Sa, 04.02. 13:00 1036 + 1,5
Sa, 04.02. 7:00 1032 + 5,1
Sa, 04.02. 1:00 1020 + 5,9
Fr, 03.02. 19:00 1012 + 1,3
Fr, 03.02. 13:00 1009 - 1,8
Fr, 03.02. 7:00 1015 - 4,0
Fr, 03.02. 1:00 1023 - 0,9
Do, 02.02. 19:00 1023 + 3,9
Ortszeit Luftdruck NN (hPa) Tendenz (hPa in 3 Std.)
Sa, 04.02. 17:00 1038 + 1,1
Sa, 04.02. 16:50 1038 keine Meldung
Sa, 04.02. 16:40 1038 keine Meldung
Sa, 04.02. 16:30 1038 + 1,1
Sa, 04.02. 16:20 1038 keine Meldung
Sa, 04.02. 16:10 1038 keine Meldung
Sa, 04.02. 16:00 1037 + 1,1
Sa, 04.02. 15:30 1037 + 1,0
Sa, 04.02. 15:00 1037 + 0,9
Sa, 04.02. 14:30 1037 + 1,0
Sa, 04.02. 14:00 1037 + 1,2
Ortszeit Schneehöhe (cm)
Sa, 04.02. 13:00 0
Sa, 04.02. 7:00 0
Sa, 04.02. 1:00 0
Fr, 03.02. 19:00 0
Fr, 03.02. 13:00 0
Fr, 03.02. 7:00 0
Fr, 03.02. 1:00 0
Do, 02.02. 19:00 0
Ortszeit Schneehöhe (cm)
Sa, 04.02. 17:00 0
Sa, 04.02. 16:50 0
Sa, 04.02. 16:40 0
Sa, 04.02. 16:30 0
Sa, 04.02. 16:20 0
Sa, 04.02. 16:10 0
Sa, 04.02. 16:00 0
Sa, 04.02. 15:30 0
Sa, 04.02. 15:00 0
Sa, 04.02. 14:30 0
Sa, 04.02. 14:00 0
Link zu dieser Seite / Seite empfehlen

Das Wetter in ...